Arch Cape, Oregon
Current Conditions -  °F | °C
As of 1:55 AM on Saturday 20 Dec 2014 (Local Time) from KAST Reporting Station
Moderate Rain Moderate Rain  
Wind Chill: 44°   Ceiling: 2300
Heat Index: 47°   Visibility: 5mi
Dew Point: 44°   Wind: 7mph
Humidity: 90%   Direction: 120°ESE
Pressure: 29.73"   Gusts: NA
Location:  45.8°N, 123.96°W
Report Text: KAST 200955Z AUTO 12006KT 5SM RA BR BKN023 OVC030 08/07 A2973 RMK AO2 SLP067 P0009 T00830067
Loading
Personal Weather Stations






























Interactive Weather Map New forecast layout! Learn more

10-Day Weather Forecast

Advertisements
Track Severe Weather on mobile